Garrano — CSLL — position and weather

sailwx.info

Track history (hours):
 
Tides and Currents Weather Stations Pressure Air Temp Water Temp Dewpoint Dewpoint Depression Visibility Wind Speed Wind Dir Waves Ship Positions

Garrano

Last reported at 2017-Aug-22 13:34 UTC. Time now 2017-Sep-22 11:49 UTC.
Position N 38°47' W 009°05'.
Warning: this ship's position is 30 days out of date.

Length 61 m; draft 3.5 m.

MMSI: 263671350.

Date/timePositionNaut miles runAvg speedWind from/ knotsBaromVisibWave heightAir tempDewpointWater temp
2017-Aug-22 13:34N 38°47' W 009°05'1 8.9
2017-Aug-22 13:27N 38°46' W 009°05'4 9.2
2017-Aug-22 13:00N 38°42' W 009°07'2 4.4
2017-Aug-22 12:30N 38°40' W 009°05'1 1.5
2017-Aug-22 12:00N 38°40' W 009°04'0 0.0
2017-Aug-22 11:30N 38°40' W 009°04'0 0.0
2017-Aug-22 11:00N 38°40' W 009°04'0 0.0
2017-Aug-22 10:30N 38°40' W 009°04'0 0.0
2017-Aug-22 10:00N 38°40' W 009°04'0 0.0
2017-Aug-22 09:30N 38°40' W 009°04'0 0.0
2017-Aug-22 09:00N 38°40' W 009°04'  
2017-Aug-18 21:04N 38°40' W 009°04'0 0.0
2017-Aug-18 21:00N 38°40' W 009°04'0 0.0
2017-Aug-18 20:29N 38°40' W 009°04'0 0.0
2017-Aug-18 20:00N 38°40' W 009°04'0 0.0
2017-Aug-18 19:30N 38°40' W 009°04'0 0.2
2017-Aug-18 19:00N 38°40' W 009°05'3 6.8
2017-Aug-18 18:30N 38°41' W 009°09'2 3.0
2017-Aug-18 18:00N 38°41' W 009°07'2 4.1
2017-Aug-18 17:30N 38°40' W 009°04'0 0.0
2017-Aug-18 17:00N 38°40' W 009°04'0 0.0
2017-Aug-18 16:30N 38°40' W 009°04'0 0.0
2017-Aug-18 16:00N 38°40' W 009°04'0 0.0
2017-Aug-18 15:30N 38°40' W 009°04'0 0.0
2017-Aug-18 15:00N 38°40' W 009°04'0 0.0
2017-Aug-18 14:00N 38°40' W 009°04'0 0.1
2017-Aug-18 13:30N 38°40' W 009°04'3 5.5
2017-Aug-18 13:00N 38°41' W 009°08'0 0.3
2017-Aug-18 12:30N 38°41' W 009°08'3 5.3
2017-Aug-18 12:00N 38°40' W 009°04'0 0.0
2017-Aug-18 11:30N 38°40' W 009°04'0 0.0
2017-Aug-18 11:00N 38°40' W 009°04'0 0.0
2017-Aug-18 10:30N 38°40' W 009°04'0 0.0
2017-Aug-18 10:00N 38°40' W 009°04'0 0.0
2017-Aug-18 09:31N 38°40' W 009°04'0 0.0
2017-Aug-18 09:01N 38°40' W 009°04'0 0.0
2017-Aug-18 08:30N 38°40' W 009°04'0 0.0
2017-Aug-18 08:01N 38°40' W 009°04'0 0.0
2017-Aug-18 07:30N 38°40' W 009°04'0 0.2
2017-Aug-18 07:00N 38°40' W 009°04'0 0.0
2017-Aug-18 01:56N 38°40' W 009°04'0 0.0
2017-Aug-18 01:30N 38°40' W 009°04'0 0.0
2017-Aug-18 01:00N 38°40' W 009°04'0 0.0
2017-Aug-18 00:30N 38°40' W 009°04'0 0.0
2017-Aug-18 00:00N 38°40' W 009°04'0 0.0
2017-Aug-17 23:30N 38°40' W 009°04'0 0.0
2017-Aug-17 23:00N 38°40' W 009°04'0 0.0
2017-Aug-17 22:30N 38°40' W 009°04'0 0.0
2017-Aug-17 22:00N 38°40' W 009°04'0 0.0
2017-Aug-17 21:30N 38°40' W 009°04'0 0.0
2017-Aug-17 18:06N 38°40' W 009°04'0 0.0
2017-Aug-17 18:00N 38°40' W 009°04'0 0.0
2017-Aug-17 17:30N 38°40' W 009°04'0 0.0
2017-Aug-17 17:00N 38°40' W 009°04'0 0.0
2017-Aug-17 16:30N 38°40' W 009°04'0 0.0
2017-Aug-17 16:00N 38°40' W 009°04'0 0.0
2017-Aug-17 15:30N 38°40' W 009°04'0 0.0
2017-Aug-17 15:00N 38°40' W 009°04'0 0.0
2017-Aug-17 14:30N 38°40' W 009°04'0 0.0
2017-Aug-17 14:00N 38°40' W 009°04'0 0.0
2017-Aug-17 13:30N 38°40' W 009°04'0 0.0
2017-Aug-17 13:00N 38°40' W 009°04'0 0.0
2017-Aug-17 12:30N 38°40' W 009°04'0 0.0
2017-Aug-17 11:19N 38°40' W 009°04'0 0.0
2017-Aug-17 11:00N 38°40' W 009°04'0 0.0
2017-Aug-17 10:29N 38°40' W 009°04'0 0.0
2017-Aug-17 09:58N 38°40' W 009°04'0 0.0
2017-Aug-17 09:30N 38°40' W 009°04'0 0.0
2017-Aug-17 09:00N 38°40' W 009°04'0 0.0
2017-Aug-17 08:30N 38°40' W 009°04'0 0.0
2017-Aug-17 07:59N 38°40' W 009°04'0 0.0
2017-Aug-17 07:30N 38°40' W 009°04'0 0.0
2017-Aug-17 07:00N 38°40' W 009°04'0 0.0
2017-Aug-17 06:30N 38°40' W 009°04'0 0.0
2017-Aug-17 06:00N 38°40' W 009°04'0 0.0
2017-Aug-17 05:30N 38°40' W 009°04'0 0.0
2017-Aug-17 05:00N 38°40' W 009°04'0 0.0
2017-Aug-17 04:30N 38°40' W 009°04'0 0.0
2017-Aug-17 04:00N 38°40' W 009°04'0 0.0
2017-Aug-17 03:30N 38°40' W 009°04'0 0.0
2017-Aug-17 03:00N 38°40' W 009°04'0 0.0
2017-Aug-17 02:30N 38°40' W 009°04'0 0.0
2017-Aug-17 02:00N 38°40' W 009°04'0 0.0
2017-Aug-17 01:30N 38°40' W 009°04'0 0.0
2017-Aug-17 01:00N 38°40' W 009°04'0 0.0
2017-Aug-17 00:30N 38°40' W 009°04'0 0.0
2017-Aug-17 00:00N 38°40' W 009°04'0 0.0
2017-Aug-16 23:30N 38°40' W 009°04'0 0.0
2017-Aug-16 23:00N 38°40' W 009°04'0 0.0
2017-Aug-16 20:28N 38°40' W 009°04'0 0.0
2017-Aug-16 20:00N 38°40' W 009°04'0 0.0
2017-Aug-16 19:30N 38°40' W 009°04'0 0.0
2017-Aug-16 19:00N 38°40' W 009°04'3 6.8
2017-Aug-16 18:30N 38°41' W 009°08'1 1.8
2017-Aug-16 18:00N 38°41' W 009°07'3 5.0
2017-Aug-16 17:30N 38°40' W 009°04'0 0.1
2017-Aug-16 16:57N 38°40' W 009°04'0 0.0
2017-Aug-16 16:30N 38°40' W 009°04'0 0.0
2017-Aug-16 16:00N 38°40' W 009°04'0 0.0
2017-Aug-16 15:30N 38°40' W 009°04'0 0.0
2017-Aug-16 15:00N 38°40' W 009°04'0 0.0
2017-Aug-16 14:30N 38°40' W 009°04'0 0.0
2017-Aug-16 14:00N 38°40' W 009°04'0 0.0
2017-Aug-16 13:30N 38°40' W 009°04'0 0.0
2017-Aug-16 13:00N 38°40' W 009°04'1 1.6
2017-Aug-16 12:30N 38°40' W 009°05'3 6.0
2017-Aug-16 12:00N 38°42' W 009°09'2 4.1
2017-Aug-16 11:30N 38°41' W 009°06'2 3.3
2017-Aug-16 11:00N 38°40' W 009°04'0 0.0
2017-Aug-16 10:30N 38°40' W 009°04'0 0.0
2017-Aug-16 10:00N 38°40' W 009°04'0 0.0
2017-Aug-16 09:30N 38°40' W 009°04'0 0.0
2017-Aug-16 09:00N 38°40' W 009°04'0 0.0
2017-Aug-16 08:30N 38°40' W 009°04'0 0.0
2017-Aug-16 08:00N 38°40' W 009°04'0 0.0
2017-Aug-16 07:30N 38°40' W 009°04'0 0.2
2017-Aug-16 07:00N 38°40' W 009°04'0 0.0
2017-Aug-16 06:30N 38°40' W 009°04'0 0.0
2017-Aug-16 06:00N 38°40' W 009°04'0 0.0
2017-Aug-16 05:30N 38°40' W 009°04'0 0.0
2017-Aug-16 05:00N 38°40' W 009°04'0 0.0
2017-Aug-16 04:30N 38°40' W 009°04'0 0.0
2017-Aug-16 04:00N 38°40' W 009°04'0 0.0
2017-Aug-16 03:30N 38°40' W 009°04'0 0.0
2017-Aug-16 03:00N 38°40' W 009°04'0 0.0
2017-Aug-16 02:30N 38°40' W 009°04'0 0.0
2017-Aug-16 02:00N 38°40' W 009°04'0 0.0
2017-Aug-16 01:30N 38°40' W 009°04'0 0.0
2017-Aug-16 01:00N 38°40' W 009°04'0 0.0
2017-Aug-16 00:30N 38°40' W 009°04'0 0.0
2017-Aug-16 00:00N 38°40' W 009°04'0 0.0
2017-Aug-15 23:30N 38°40' W 009°04'0 0.0
2017-Aug-15 19:51N 38°40' W 009°04'0 0.0
2017-Aug-15 19:30N 38°40' W 009°04'0 0.0
2017-Aug-15 19:00N 38°40' W 009°04'0 0.0
2017-Aug-15 18:30N 38°40' W 009°04'0 0.0
2017-Aug-15 18:00N 38°40' W 009°04'0 0.0
2017-Aug-15 17:30N 38°40' W 009°04'0 0.0
2017-Aug-15 17:00N 38°40' W 009°04'0 0.0
2017-Aug-15 16:30N 38°40' W 009°04'0 0.0
2017-Aug-15 16:00N 38°40' W 009°04'0 0.0
2017-Aug-15 15:30N 38°40' W 009°04'0 0.0
2017-Aug-15 15:00N 38°40' W 009°04'0 0.0
2017-Aug-15 14:30N 38°40' W 009°04'0 0.0
2017-Aug-15 14:00N 38°40' W 009°04'0 0.0
2017-Aug-15 13:30N 38°40' W 009°04'0 0.0
2017-Aug-15 13:00N 38°40' W 009°04'0 0.0
2017-Aug-15 12:30N 38°40' W 009°04'0 0.0
2017-Aug-15 12:00N 38°40' W 009°04'0 0.0
2017-Aug-14 22:03N 38°40' W 009°04'0 0.0
2017-Aug-14 22:00N 38°40' W 009°04'0 0.0
2017-Aug-14 21:30N 38°40' W 009°04'0 0.0
2017-Aug-14 21:00N 38°40' W 009°04'0 0.0
2017-Aug-14 20:28N 38°40' W 009°04'0 0.0
2017-Aug-14 20:00N 38°40' W 009°04'0 0.0
2017-Aug-14 19:30N 38°40' W 009°04'0 0.0
2017-Aug-14 19:00N 38°40' W 009°04'0 0.0
2017-Aug-14 18:30N 38°40' W 009°04'0 0.0
2017-Aug-14 17:59N 38°40' W 009°04'0 0.0
2017-Aug-14 17:30N 38°40' W 009°04'0 0.0
2017-Aug-14 17:00N 38°40' W 009°04'0 0.1
2017-Aug-14 16:29N 38°40' W 009°04'0 0.0
2017-Aug-14 16:01N 38°40' W 009°04'2 4.9
2017-Aug-14 15:30N 38°41' W 009°07'0 0.5
2017-Aug-14 15:00N 38°41' W 009°08'3 5.4
2017-Aug-14 14:30N 38°40' W 009°04'0 0.1
2017-Aug-14 13:58N 38°40' W 009°04'0 0.0
2017-Aug-14 13:30N 38°40' W 009°04'0 0.0
2017-Aug-14 13:00N 38°40' W 009°04'0 0.0
2017-Aug-14 12:30N 38°40' W 009°04'0 0.0
2017-Aug-14 12:00N 38°40' W 009°04'0 0.0
2017-Aug-14 11:30N 38°40' W 009°04'0 0.0
2017-Aug-14 11:00N 38°40' W 009°04'1 2.7
2017-Aug-14 10:30N 38°41' W 009°06'3 5.6
2017-Aug-14 10:00N 38°42' W 009°09'3 6.2
2017-Aug-14 09:30N 38°40' W 009°06'1 2.1
2017-Aug-14 09:01N 38°40' W 009°04'0 0.0
2017-Aug-14 08:30N 38°40' W 009°04'0 0.0
2017-Aug-14 08:00N 38°40' W 009°04'0 0.0
2017-Aug-14 07:30N 38°40' W 009°04'0 0.0
2017-Aug-14 07:00N 38°40' W 009°04'0 0.0
2017-Aug-14 06:30N 38°40' W 009°04'0 0.2
2017-Aug-14 06:00N 38°40' W 009°04'0 0.0
2017-Aug-14 05:30N 38°40' W 009°04'0 0.0
2017-Aug-14 05:00N 38°40' W 009°04'0 0.0
2017-Aug-14 04:30N 38°40' W 009°04'0 0.0
2017-Aug-14 04:00N 38°40' W 009°04'0 0.0
2017-Aug-14 03:30N 38°40' W 009°04'0 0.0
2017-Aug-14 03:01N 38°40' W 009°04'0 0.0
2017-Aug-14 02:30N 38°40' W 009°04'0 0.0
2017-Aug-14 02:00N 38°40' W 009°04'0 0.0
2017-Aug-14 01:30N 38°40' W 009°04'0 0.0
2017-Aug-14 01:00N 38°40' W 009°04'0 0.0
2017-Aug-14 00:30N 38°40' W 009°04'0 0.0
2017-Aug-14 00:01N 38°40' W 009°04'0 0.0
2017-Aug-13 23:30N 38°40' W 009°04'0 0.0
2017-Aug-13 23:00N 38°40' W 009°04'0 0.0
2017-Aug-13 22:30N 38°40' W 009°04'0 0.0
2017-Aug-13 22:00N 38°40' W 009°04'0 0.0
2017-Aug-13 21:30N 38°40' W 009°04'0 0.0
2017-Aug-13 21:00N 38°40' W 009°04'0 0.0
2017-Aug-13 20:30N 38°40' W 009°04'0 0.0
2017-Aug-13 19:59N 38°40' W 009°04'0 0.0
2017-Aug-13 19:30N 38°40' W 009°04'0 0.0
2017-Aug-13 19:00N 38°40' W 009°04'0 0.0
2017-Aug-13 18:29N 38°40' W 009°04'0 0.0
2017-Aug-13 18:00N 38°40' W 009°04'0 0.0
2017-Aug-13 17:29N 38°40' W 009°04'0 0.0
2017-Aug-13 16:59N 38°40' W 009°04'3 5.5
2017-Aug-13 16:30N 38°41' W 009°08'0 0.9
2017-Aug-13 16:00N 38°41' W 009°08'3 5.7
2017-Aug-13 15:30N 38°40' W 009°05'0 0.4
2017-Aug-13 15:00N 38°40' W 009°04'0 0.0
2017-Aug-13 14:27N 38°40' W 009°04'0 0.0
2017-Aug-13 14:00N 38°40' W 009°04'0 0.0
2017-Aug-13 13:30N 38°40' W 009°04'0 0.0
2017-Aug-13 13:00N 38°40' W 009°04'0 0.0
2017-Aug-13 12:30N 38°40' W 009°04'0 0.0
2017-Aug-13 12:00N 38°40' W 009°04'1 1.9
2017-Aug-13 11:30N 38°40' W 009°06'3 5.8
2017-Aug-13 10:59N 38°42' W 009°09'2 5.2
2017-Aug-13 10:30N 38°41' W 009°06'1 2.8
2017-Aug-13 10:01N 38°40' W 009°04'0 0.0
2017-Aug-13 09:30N 38°40' W 009°04'0 0.0
2017-Aug-13 09:00N 38°40' W 009°04'0 0.0
2017-Aug-13 08:30N 38°40' W 009°04'0 0.0
2017-Aug-13 08:00N 38°40' W 009°04'0 0.0
2017-Aug-13 07:29N 38°40' W 009°04'0 0.2
2017-Aug-13 07:01N 38°40' W 009°04'0 0.0
2017-Aug-13 06:30N 38°40' W 009°04'0 0.0
2017-Aug-13 06:00N 38°40' W 009°04'0 0.0
2017-Aug-13 05:29N 38°40' W 009°04'0 0.0
2017-Aug-13 05:00N 38°40' W 009°04'0 0.0
2017-Aug-13 04:30N 38°40' W 009°04'0 0.0
2017-Aug-13 04:00N 38°40' W 009°04'0 0.0
2017-Aug-13 03:30N 38°40' W 009°04'0 0.0
2017-Aug-13 03:00N 38°40' W 009°04'0 0.0
2017-Aug-13 02:30N 38°40' W 009°04'0 0.0
2017-Aug-13 02:00N 38°40' W 009°04'0 0.0
2017-Aug-13 01:30N 38°40' W 009°04'0 0.0
2017-Aug-13 01:00N 38°40' W 009°04'0 0.0
2017-Aug-13 00:30N 38°40' W 009°04'0 0.0
2017-Aug-13 00:01N 38°40' W 009°04'0 0.0
2017-Aug-12 23:30N 38°40' W 009°04'0 0.0
2017-Aug-12 23:01N 38°40' W 009°04'0 0.0
2017-Aug-12 22:30N 38°40' W 009°04'0 0.0
2017-Aug-12 22:00N 38°40' W 009°04'0 0.0
2017-Aug-12 21:30N 38°40' W 009°04'0 0.0
2017-Aug-12 21:00N 38°40' W 009°04'0 0.0
2017-Aug-12 20:29N 38°40' W 009°04'0 0.0
2017-Aug-12 20:00N 38°40' W 009°04'0 0.0
2017-Aug-12 19:30N 38°40' W 009°04'0 0.0
2017-Aug-12 19:00N 38°40' W 009°04'0 0.0
2017-Aug-12 18:30N 38°40' W 009°04'0 0.0
2017-Aug-12 18:00N 38°40' W 009°04'0 0.0
2017-Aug-12 17:30N 38°40' W 009°04'1 2.2
2017-Aug-12 17:00N 38°40' W 009°06'3 5.4
2017-Aug-12 16:29N 38°42' W 009°09'3 5.5
2017-Aug-12 16:00N 38°41' W 009°06'1 2.6
2017-Aug-12 15:30N 38°40' W 009°04'0 0.0
2017-Aug-12 15:00N 38°40' W 009°04'0 0.0
2017-Aug-12 14:30N 38°40' W 009°04'0 0.0
2017-Aug-12 14:00N 38°40' W 009°04'  
Track history (hours):
 
Tides and Currents Weather Stations Pressure Air Temp Water Temp Dewpoint Dewpoint Depression Visibility Wind Speed Wind Dir Waves Ship Positions

Garrano

Last reported at 2017-Aug-22 13:34 UTC. Time now 2017-Sep-22 11:49 UTC.
Position N 38°47' W 009°05'.
Warning: this ship's position is 30 days out of date.

Length 61 m; draft 3.5 m.

MMSI: 263671350.

Date/timePositionNaut miles runAvg speedWind from/ knotsBaromVisibWave heightAir tempDewpointWater temp
2017-Aug-22 13:34N 38°47' W 009°05'1 8.9
2017-Aug-22 13:27N 38°46' W 009°05'4 9.2
2017-Aug-22 13:00N 38°42' W 009°07'2 4.4
2017-Aug-22 12:30N 38°40' W 009°05'1 1.5
2017-Aug-22 12:00N 38°40' W 009°04'0 0.0
2017-Aug-22 11:30N 38°40' W 009°04'0 0.0
2017-Aug-22 11:00N 38°40' W 009°04'0 0.0
2017-Aug-22 10:30N 38°40' W 009°04'0 0.0
2017-Aug-22 10:00N 38°40' W 009°04'0 0.0
2017-Aug-22 09:30N 38°40' W 009°04'0 0.0
2017-Aug-22 09:00N 38°40' W 009°04'  
2017-Aug-18 21:04N 38°40' W 009°04'0 0.0
2017-Aug-18 21:00N 38°40' W 009°04'0 0.0
2017-Aug-18 20:29N 38°40' W 009°04'0 0.0
2017-Aug-18 20:00N 38°40' W 009°04'0 0.0
2017-Aug-18 19:30N 38°40' W 009°04'0 0.2
2017-Aug-18 19:00N 38°40' W 009°05'3 6.8
2017-Aug-18 18:30N 38°41' W 009°09'2 3.0
2017-Aug-18 18:00N 38°41' W 009°07'2 4.1
2017-Aug-18 17:30N 38°40' W 009°04'0 0.0
2017-Aug-18 17:00N 38°40' W 009°04'0 0.0
2017-Aug-18 16:30N 38°40' W 009°04'0 0.0
2017-Aug-18 16:00N 38°40' W 009°04'0 0.0
2017-Aug-18 15:30N 38°40' W 009°04'0 0.0
2017-Aug-18 15:00N 38°40' W 009°04'0 0.0
2017-Aug-18 14:00N 38°40' W 009°04'0 0.1
2017-Aug-18 13:30N 38°40' W 009°04'3 5.5
2017-Aug-18 13:00N 38°41' W 009°08'0 0.3
2017-Aug-18 12:30N 38°41' W 009°08'3 5.3
2017-Aug-18 12:00N 38°40' W 009°04'0 0.0
2017-Aug-18 11:30N 38°40' W 009°04'0 0.0
2017-Aug-18 11:00N 38°40' W 009°04'0 0.0
2017-Aug-18 10:30N 38°40' W 009°04'0 0.0
2017-Aug-18 10:00N 38°40' W 009°04'0 0.0
2017-Aug-18 09:31N 38°40' W 009°04'0 0.0
2017-Aug-18 09:01N 38°40' W 009°04'0 0.0
2017-Aug-18 08:30N 38°40' W 009°04'0 0.0
2017-Aug-18 08:01N 38°40' W 009°04'0 0.0
2017-Aug-18 07:30N 38°40' W 009°04'0 0.2
2017-Aug-18 07:00N 38°40' W 009°04'0 0.0
2017-Aug-18 01:56N 38°40' W 009°04'0 0.0
2017-Aug-18 01:30N 38°40' W 009°04'0 0.0
2017-Aug-18 01:00N 38°40' W 009°04'0 0.0
2017-Aug-18 00:30N 38°40' W 009°04'0 0.0
2017-Aug-18 00:00N 38°40' W 009°04'0 0.0
2017-Aug-17 23:30N 38°40' W 009°04'0 0.0
2017-Aug-17 23:00N 38°40' W 009°04'0 0.0
2017-Aug-17 22:30N 38°40' W 009°04'0 0.0
2017-Aug-17 22:00N 38°40' W 009°04'0 0.0
2017-Aug-17 21:30N 38°40' W 009°04'0 0.0
2017-Aug-17 18:06N 38°40' W 009°04'0 0.0
2017-Aug-17 18:00N 38°40' W 009°04'0 0.0
2017-Aug-17 17:30N 38°40' W 009°04'0 0.0
2017-Aug-17 17:00N 38°40' W 009°04'0 0.0
2017-Aug-17 16:30N 38°40' W 009°04'0 0.0
2017-Aug-17 16:00N 38°40' W 009°04'0 0.0
2017-Aug-17 15:30N 38°40' W 009°04'0 0.0
2017-Aug-17 15:00N 38°40' W 009°04'0 0.0
2017-Aug-17 14:30N 38°40' W 009°04'0 0.0
2017-Aug-17 14:00N 38°40' W 009°04'0 0.0
2017-Aug-17 13:30N 38°40' W 009°04'0 0.0
2017-Aug-17 13:00N 38°40' W 009°04'0 0.0
2017-Aug-17 12:30N 38°40' W 009°04'0 0.0
2017-Aug-17 11:19N 38°40' W 009°04'0 0.0
2017-Aug-17 11:00N 38°40' W 009°04'0 0.0
2017-Aug-17 10:29N 38°40' W 009°04'0 0.0
2017-Aug-17 09:58N 38°40' W 009°04'0 0.0
2017-Aug-17 09:30N 38°40' W 009°04'0 0.0
2017-Aug-17 09:00N 38°40' W 009°04'0 0.0
2017-Aug-17 08:30N 38°40' W 009°04'0 0.0
2017-Aug-17 07:59N 38°40' W 009°04'0 0.0
2017-Aug-17 07:30N 38°40' W 009°04'0 0.0
2017-Aug-17 07:00N 38°40' W 009°04'0 0.0
2017-Aug-17 06:30N 38°40' W 009°04'0 0.0
2017-Aug-17 06:00N 38°40' W 009°04'0 0.0
2017-Aug-17 05:30N 38°40' W 009°04'0 0.0
2017-Aug-17 05:00N 38°40' W 009°04'0 0.0
2017-Aug-17 04:30N 38°40' W 009°04'0 0.0
2017-Aug-17 04:00N 38°40' W 009°04'0 0.0
2017-Aug-17 03:30N 38°40' W 009°04'0 0.0
2017-Aug-17 03:00N 38°40' W 009°04'0 0.0
2017-Aug-17 02:30N 38°40' W 009°04'0 0.0
2017-Aug-17 02:00N 38°40' W 009°04'0 0.0
2017-Aug-17 01:30N 38°40' W 009°04'0 0.0
2017-Aug-17 01:00N 38°40' W 009°04'0 0.0
2017-Aug-17 00:30N 38°40' W 009°04'0 0.0
2017-Aug-17 00:00N 38°40' W 009°04'0 0.0
2017-Aug-16 23:30N 38°40' W 009°04'0 0.0
2017-Aug-16 23:00N 38°40' W 009°04'0 0.0
2017-Aug-16 20:28N 38°40' W 009°04'0 0.0
2017-Aug-16 20:00N 38°40' W 009°04'0 0.0
2017-Aug-16 19:30N 38°40' W 009°04'0 0.0
2017-Aug-16 19:00N 38°40' W 009°04'3 6.8
2017-Aug-16 18:30N 38°41' W 009°08'1 1.8
2017-Aug-16 18:00N 38°41' W 009°07'3 5.0
2017-Aug-16 17:30N 38°40' W 009°04'0 0.1
2017-Aug-16 16:57N 38°40' W 009°04'0 0.0
2017-Aug-16 16:30N 38°40' W 009°04'0 0.0
2017-Aug-16 16:00N 38°40' W 009°04'0 0.0
2017-Aug-16 15:30N 38°40' W 009°04'0 0.0
2017-Aug-16 15:00N 38°40' W 009°04'0 0.0
2017-Aug-16 14:30N 38°40' W 009°04'0 0.0
2017-Aug-16 14:00N 38°40' W 009°04'0 0.0
2017-Aug-16 13:30N 38°40' W 009°04'0 0.0
2017-Aug-16 13:00N 38°40' W 009°04'1 1.6
2017-Aug-16 12:30N 38°40' W 009°05'3 6.0
2017-Aug-16 12:00N 38°42' W 009°09'2 4.1
2017-Aug-16 11:30N 38°41' W 009°06'2 3.3
2017-Aug-16 11:00N 38°40' W 009°04'0 0.0
2017-Aug-16 10:30N 38°40' W 009°04'0 0.0
2017-Aug-16 10:00N 38°40' W 009°04'0 0.0
2017-Aug-16 09:30N 38°40' W 009°04'0 0.0
2017-Aug-16 09:00N 38°40' W 009°04'0 0.0
2017-Aug-16 08:30N 38°40' W 009°04'0 0.0
2017-Aug-16 08:00N 38°40' W 009°04'0 0.0
2017-Aug-16 07:30N 38°40' W 009°04'0 0.2
2017-Aug-16 07:00N 38°40' W 009°04'0 0.0
2017-Aug-16 06:30N 38°40' W 009°04'0 0.0
2017-Aug-16 06:00N 38°40' W 009°04'0 0.0
2017-Aug-16 05:30N 38°40' W 009°04'0 0.0
2017-Aug-16 05:00N 38°40' W 009°04'0 0.0
2017-Aug-16 04:30N 38°40' W 009°04'0 0.0
2017-Aug-16 04:00N 38°40' W 009°04'0 0.0
2017-Aug-16 03:30N 38°40' W 009°04'0 0.0
2017-Aug-16 03:00N 38°40' W 009°04'0 0.0
2017-Aug-16 02:30N 38°40' W 009°04'0 0.0
2017-Aug-16 02:00N 38°40' W 009°04'0 0.0
2017-Aug-16 01:30N 38°40' W 009°04'0 0.0
2017-Aug-16 01:00N 38°40' W 009°04'0 0.0
2017-Aug-16 00:30N 38°40' W 009°04'0 0.0
2017-Aug-16 00:00N 38°40' W 009°04'0 0.0
2017-Aug-15 23:30N 38°40' W 009°04'0 0.0
2017-Aug-15 19:51N 38°40' W 009°04'0 0.0
2017-Aug-15 19:30N 38°40' W 009°04'0 0.0
2017-Aug-15 19:00N 38°40' W 009°04'0 0.0
2017-Aug-15 18:30N 38°40' W 009°04'0 0.0
2017-Aug-15 18:00N 38°40' W 009°04'0 0.0
2017-Aug-15 17:30N 38°40' W 009°04'0 0.0
2017-Aug-15 17:00N 38°40' W 009°04'0 0.0
2017-Aug-15 16:30N 38°40' W 009°04'0 0.0
2017-Aug-15 16:00N 38°40' W 009°04'0 0.0
2017-Aug-15 15:30N 38°40' W 009°04'0 0.0
2017-Aug-15 15:00N 38°40' W 009°04'0 0.0
2017-Aug-15 14:30N 38°40' W 009°04'0 0.0
2017-Aug-15 14:00N 38°40' W 009°04'0 0.0
2017-Aug-15 13:30N 38°40' W 009°04'0 0.0
2017-Aug-15 13:00N 38°40' W 009°04'0 0.0
2017-Aug-15 12:30N 38°40' W 009°04'0 0.0
2017-Aug-15 12:00N 38°40' W 009°04'0 0.0
2017-Aug-14 22:03N 38°40' W 009°04'0 0.0
2017-Aug-14 22:00N 38°40' W 009°04'0 0.0
2017-Aug-14 21:30N 38°40' W 009°04'0 0.0
2017-Aug-14 21:00N 38°40' W 009°04'0 0.0
2017-Aug-14 20:28N 38°40' W 009°04'0 0.0
2017-Aug-14 20:00N 38°40' W 009°04'0 0.0
2017-Aug-14 19:30N 38°40' W 009°04'0 0.0
2017-Aug-14 19:00N 38°40' W 009°04'0 0.0
2017-Aug-14 18:30N 38°40' W 009°04'0 0.0
2017-Aug-14 17:59N 38°40' W 009°04'0 0.0
2017-Aug-14 17:30N 38°40' W 009°04'0 0.0
2017-Aug-14 17:00N 38°40' W 009°04'0 0.1
2017-Aug-14 16:29N 38°40' W 009°04'0 0.0
2017-Aug-14 16:01N 38°40' W 009°04'2 4.9
2017-Aug-14 15:30N 38°41' W 009°07'0 0.5
2017-Aug-14 15:00N 38°41' W 009°08'3 5.4
2017-Aug-14 14:30N 38°40' W 009°04'0 0.1
2017-Aug-14 13:58N 38°40' W 009°04'0 0.0
2017-Aug-14 13:30N 38°40' W 009°04'0 0.0
2017-Aug-14 13:00N 38°40' W 009°04'0 0.0
2017-Aug-14 12:30N 38°40' W 009°04'0 0.0
2017-Aug-14 12:00N 38°40' W 009°04'0 0.0
2017-Aug-14 11:30N 38°40' W 009°04'0 0.0
2017-Aug-14 11:00N 38°40' W 009°04'1 2.7
2017-Aug-14 10:30N 38°41' W 009°06'3 5.6
2017-Aug-14 10:00N 38°42' W 009°09'3 6.2
2017-Aug-14 09:30N 38°40' W 009°06'1 2.1
2017-Aug-14 09:01N 38°40' W 009°04'0 0.0
2017-Aug-14 08:30N 38°40' W 009°04'0 0.0
2017-Aug-14 08:00N 38°40' W 009°04'0 0.0
2017-Aug-14 07:30N 38°40' W 009°04'0 0.0
2017-Aug-14 07:00N 38°40' W 009°04'0 0.0
2017-Aug-14 06:30N 38°40' W 009°04'0 0.2
2017-Aug-14 06:00N 38°40' W 009°04'0 0.0
2017-Aug-14 05:30N 38°40' W 009°04'0 0.0
2017-Aug-14 05:00N 38°40' W 009°04'0 0.0
2017-Aug-14 04:30N 38°40' W 009°04'0 0.0
2017-Aug-14 04:00N 38°40' W 009°04'0 0.0
2017-Aug-14 03:30N 38°40' W 009°04'0 0.0
2017-Aug-14 03:01N 38°40' W 009°04'0 0.0
2017-Aug-14 02:30N 38°40' W 009°04'0 0.0
2017-Aug-14 02:00N 38°40' W 009°04'0 0.0
2017-Aug-14 01:30N 38°40' W 009°04'0 0.0
2017-Aug-14 01:00N 38°40' W 009°04'0 0.0
2017-Aug-14 00:30N 38°40' W 009°04'0 0.0
2017-Aug-14 00:01N 38°40' W 009°04'0 0.0
2017-Aug-13 23:30N 38°40' W 009°04'0 0.0
2017-Aug-13 23:00N 38°40' W 009°04'0 0.0
2017-Aug-13 22:30N 38°40' W 009°04'0 0.0
2017-Aug-13 22:00N 38°40' W 009°04'0 0.0
2017-Aug-13 21:30N 38°40' W 009°04'0 0.0
2017-Aug-13 21:00N 38°40' W 009°04'0 0.0
2017-Aug-13 20:30N 38°40' W 009°04'0 0.0
2017-Aug-13 19:59N 38°40' W 009°04'0 0.0
2017-Aug-13 19:30N 38°40' W 009°04'0 0.0
2017-Aug-13 19:00N 38°40' W 009°04'0 0.0
2017-Aug-13 18:29N 38°40' W 009°04'0 0.0
2017-Aug-13 18:00N 38°40' W 009°04'0 0.0
2017-Aug-13 17:29N 38°40' W 009°04'0 0.0
2017-Aug-13 16:59N 38°40' W 009°04'3 5.5
2017-Aug-13 16:30N 38°41' W 009°08'0 0.9
2017-Aug-13 16:00N 38°41' W 009°08'3 5.7
2017-Aug-13 15:30N 38°40' W 009°05'0 0.4
2017-Aug-13 15:00N 38°40' W 009°04'0 0.0
2017-Aug-13 14:27N 38°40' W 009°04'0 0.0
2017-Aug-13 14:00N 38°40' W 009°04'0 0.0
2017-Aug-13 13:30N 38°40' W 009°04'0 0.0
2017-Aug-13 13:00N 38°40' W 009°04'0 0.0
2017-Aug-13 12:30N 38°40' W 009°04'0 0.0
2017-Aug-13 12:00N 38°40' W 009°04'1 1.9
2017-Aug-13 11:30N 38°40' W 009°06'3 5.8
2017-Aug-13 10:59N 38°42' W 009°09'2 5.2
2017-Aug-13 10:30N 38°41' W 009°06'1 2.8
2017-Aug-13 10:01N 38°40' W 009°04'0 0.0
2017-Aug-13 09:30N 38°40' W 009°04'0 0.0
2017-Aug-13 09:00N 38°40' W 009°04'0 0.0
2017-Aug-13 08:30N 38°40' W 009°04'0 0.0
2017-Aug-13 08:00N 38°40' W 009°04'0 0.0
2017-Aug-13 07:29N 38°40' W 009°04'0 0.2
2017-Aug-13 07:01N 38°40' W 009°04'0 0.0
2017-Aug-13 06:30N 38°40' W 009°04'0 0.0
2017-Aug-13 06:00N 38°40' W 009°04'0 0.0
2017-Aug-13 05:29N 38°40' W 009°04'0 0.0
2017-Aug-13 05:00N 38°40' W 009°04'0 0.0
2017-Aug-13 04:30N 38°40' W 009°04'0 0.0
2017-Aug-13 04:00N 38°40' W 009°04'0 0.0
2017-Aug-13 03:30N 38°40' W 009°04'0 0.0
2017-Aug-13 03:00N 38°40' W 009°04'0 0.0
2017-Aug-13 02:30N 38°40' W 009°04'0 0.0
2017-Aug-13 02:00N 38°40' W 009°04'0 0.0
2017-Aug-13 01:30N 38°40' W 009°04'0 0.0
2017-Aug-13 01:00N 38°40' W 009°04'0 0.0
2017-Aug-13 00:30N 38°40' W 009°04'0 0.0
2017-Aug-13 00:01N 38°40' W 009°04'0 0.0
2017-Aug-12 23:30N 38°40' W 009°04'0 0.0
2017-Aug-12 23:01N 38°40' W 009°04'0 0.0
2017-Aug-12 22:30N 38°40' W 009°04'0 0.0
2017-Aug-12 22:00N 38°40' W 009°04'0 0.0
2017-Aug-12 21:30N 38°40' W 009°04'0 0.0
2017-Aug-12 21:00N 38°40' W 009°04'0 0.0
2017-Aug-12 20:29N 38°40' W 009°04'0 0.0
2017-Aug-12 20:00N 38°40' W 009°04'0 0.0
2017-Aug-12 19:30N 38°40' W 009°04'0 0.0
2017-Aug-12 19:00N 38°40' W 009°04'0 0.0
2017-Aug-12 18:30N 38°40' W 009°04'0 0.0
2017-Aug-12 18:00N 38°40' W 009°04'0 0.0
2017-Aug-12 17:30N 38°40' W 009°04'1 2.2
2017-Aug-12 17:00N 38°40' W 009°06'3 5.4
2017-Aug-12 16:29N 38°42' W 009°09'3 5.5
2017-Aug-12 16:00N 38°41' W 009°06'1 2.6
2017-Aug-12 15:30N 38°40' W 009°04'0 0.0
2017-Aug-12 15:00N 38°40' W 009°04'0 0.0
2017-Aug-12 14:30N 38°40' W 009°04'0 0.0
2017-Aug-12 14:00N 38°40' W 009°04'  

Dump ship's entire track history